createdAt,value
2019-06-08T00:00:03.519Z,79.50
2019-06-08T00:02:30.381Z,79.65
2019-06-08T00:04:57.192Z,79.64
2019-06-08T00:07:23.951Z,79.62
2019-06-08T00:09:50.788Z,79.60
2019-06-08T00:12:17.616Z,79.57
2019-06-08T00:14:44.438Z,79.16
2019-06-08T00:17:24.294Z,79.35
2019-06-08T00:19:39.994Z,79.61
2019-06-08T00:22:07.009Z,79.59
2019-06-08T00:24:33.818Z,79.90
2019-06-08T00:27:00.962Z,79.97
2019-06-08T00:29:27.777Z,80.11
2019-06-08T00:31:54.635Z,80.21
2019-06-08T00:34:22.657Z,80.07
2019-06-08T00:36:49.596Z,80.12
2019-06-08T00:39:16.793Z,79.96
2019-06-08T00:41:43.907Z,79.86
2019-06-08T00:44:10.622Z,79.97
2019-06-08T00:46:37.526Z,79.55
2019-06-08T00:49:04.235Z,79.73
2019-06-08T00:51:31.008Z,79.73
2019-06-08T00:53:57.976Z,79.76
2019-06-08T00:56:25.996Z,79.96
2019-06-08T00:58:53.149Z,79.98
2019-06-08T01:01:20.755Z,80.01
2019-06-08T01:03:48.579Z,80.12
2019-06-08T01:06:15.400Z,79.91
2019-06-08T01:08:42.358Z,79.97
2019-06-08T01:11:09.184Z,80.12
2019-06-08T01:13:35.900Z,80.21
2019-06-08T01:16:03.178Z,80.39
2019-06-08T01:18:29.886Z,80.39
2019-06-08T01:20:56.908Z,80.14
2019-06-08T01:23:23.659Z,80.40
2019-06-08T01:25:50.483Z,80.52
2019-06-08T01:28:17.334Z,80.31
2019-06-08T01:30:44.681Z,80.60
2019-06-08T01:33:11.528Z,80.51
2019-06-08T01:35:38.555Z,80.52
2019-06-08T01:38:05.321Z,80.72
2019-06-08T01:40:32.356Z,81.25
2019-06-08T01:42:59.106Z,81.48
2019-06-08T01:45:32.894Z,81.23
2019-06-08T01:48:18.837Z,81.46
2019-06-08T01:50:34.259Z,81.32
2019-06-08T01:53:01.457Z,81.43
2019-06-08T01:55:29.083Z,81.47
2019-06-08T01:57:56.739Z,81.13
2019-06-08T02:00:40.202Z,81.09
2019-06-08T02:02:53.680Z,81.03
2019-06-08T02:05:20.903Z,81.60
2019-06-08T02:07:48.143Z,81.52
2019-06-08T02:10:15.657Z,81.77
2019-06-08T02:12:42.480Z,82.32
2019-06-08T02:15:10.178Z,82.39
2019-06-08T02:17:37.140Z,82.12
2019-06-08T02:20:07.660Z,82.02
2019-06-08T02:22:35.128Z,82.45
2019-06-08T02:25:04.244Z,82.98
2019-06-08T02:27:31.410Z,82.68
2019-06-08T02:29:58.256Z,82.04
2019-06-08T02:32:24.987Z,82.16
2019-06-08T02:34:51.808Z,82.60
2019-06-08T02:37:18.840Z,82.11
2019-06-08T02:39:45.788Z,81.72
2019-06-08T02:42:12.703Z,82.32
2019-06-08T02:44:40.653Z,82.86
2019-06-08T02:47:07.709Z,83.04
2019-06-08T02:49:35.429Z,82.42
2019-06-08T02:52:02.961Z,82.15
2019-06-08T02:54:32.426Z,82.12
2019-06-08T02:57:04.264Z,82.54
2019-06-08T02:59:38.028Z,82.59
2019-06-08T03:02:05.112Z,82.82
2019-06-08T03:04:38.756Z,82.11
2019-06-08T03:07:08.832Z,81.88
2019-06-08T03:09:38.656Z,82.13
2019-06-08T03:12:05.808Z,82.54
2019-06-08T03:14:33.435Z,82.42
2019-06-08T03:17:01.812Z,82.16
2019-06-08T03:19:28.660Z,82.17
2019-06-08T03:21:55.681Z,82.20
2019-06-08T03:24:22.549Z,81.93
2019-06-08T03:26:49.485Z,81.67
2019-06-08T03:29:16.336Z,81.31
2019-06-08T03:31:53.516Z,80.92
2019-06-08T03:34:11.824Z,80.58
2019-06-08T03:36:46.738Z,80.29
2019-06-08T03:39:07.824Z,80.18
2019-06-08T03:41:36.238Z,80.02
2019-06-08T03:44:04.092Z,79.81
2019-06-08T03:46:30.801Z,78.98
2019-06-08T03:48:57.554Z,78.38
2019-06-08T03:51:24.487Z,77.60
2019-06-08T03:53:51.224Z,76.98
2019-06-08T03:56:18.082Z,76.37
2019-06-08T03:58:47.821Z,75.71
2019-06-08T04:01:14.343Z,75.13
2019-06-08T04:03:41.737Z,74.92
2019-06-08T04:06:08.790Z,74.79
2019-06-08T04:08:37.777Z,75.50
2019-06-08T04:11:04.969Z,75.96
2019-06-08T04:13:31.811Z,76.07
2019-06-08T04:15:58.665Z,76.44
2019-06-08T04:18:25.499Z,76.24
2019-06-08T04:20:52.343Z,75.73
2019-06-08T04:23:19.145Z,75.40
2019-06-08T04:25:47.710Z,74.60
2019-06-08T04:28:14.754Z,74.83
2019-06-08T04:30:43.000Z,74.29
2019-06-08T04:33:10.444Z,73.77
2019-06-08T04:35:38.214Z,73.90
2019-06-08T04:38:05.492Z,73.77
2019-06-08T04:40:32.406Z,73.06
2019-06-08T04:42:59.354Z,71.89
2019-06-08T04:45:26.200Z,72.84
2019-06-08T04:47:53.134Z,73.19
2019-06-08T04:50:23.339Z,73.20
2019-06-08T04:52:49.895Z,72.49
2019-06-08T04:55:17.363Z,71.58
2019-06-08T04:57:47.400Z,70.81
2019-06-08T05:00:14.211Z,70.81
2019-06-08T05:02:42.226Z,72.13
2019-06-08T05:05:10.221Z,72.17
2019-06-08T05:07:39.216Z,71.82
2019-06-08T05:10:07.530Z,71.41
2019-06-08T05:12:34.481Z,71.29
2019-06-08T05:15:01.527Z,70.60
2019-06-08T05:17:28.580Z,71.47
2019-06-08T05:19:55.517Z,71.50
2019-06-08T05:22:22.460Z,70.84
2019-06-08T05:24:50.071Z,70.36
2019-06-08T05:27:17.360Z,69.68
2019-06-08T05:29:45.324Z,68.76
2019-06-08T05:32:12.261Z,68.58
2019-06-08T05:34:39.336Z,68.51
2019-06-08T05:37:06.307Z,67.96
2019-06-08T05:39:33.151Z,67.22
2019-06-08T05:41:59.973Z,66.36
2019-06-08T05:44:26.790Z,66.06
2019-06-08T05:46:53.628Z,65.79
2019-06-08T05:49:20.694Z,65.80
2019-06-08T05:51:47.889Z,65.17
2019-06-08T05:54:14.672Z,65.01
2019-06-08T05:56:41.972Z,64.35
2019-06-08T05:59:08.967Z,64.84
2019-06-08T06:01:35.913Z,64.19
2019-06-08T06:04:02.872Z,64.05
2019-06-08T06:06:29.704Z,63.44
2019-06-08T06:08:56.787Z,63.95
2019-06-08T06:11:23.569Z,64.73
2019-06-08T06:13:51.508Z,64.12
2019-06-08T06:16:18.387Z,63.53
2019-06-08T06:18:45.565Z,63.79
2019-06-08T06:21:12.703Z,63.75
2019-06-08T06:23:41.049Z,63.32
2019-06-08T06:26:08.212Z,63.73
2019-06-08T06:28:34.944Z,62.74
2019-06-08T06:31:01.854Z,63.04
2019-06-08T06:33:28.896Z,63.00
2019-06-08T06:35:55.724Z,62.75
2019-06-08T06:38:22.603Z,63.20
2019-06-08T06:40:50.068Z,62.17
2019-06-08T06:43:16.999Z,62.29
2019-06-08T06:45:44.374Z,61.97
2019-06-08T06:48:11.463Z,61.75
2019-06-08T06:50:38.172Z,62.44
2019-06-08T06:53:05.149Z,62.34
2019-06-08T06:55:32.203Z,62.06
2019-06-08T06:57:59.283Z,61.55
2019-06-08T07:00:31.366Z,60.72
2019-06-08T07:02:59.894Z,60.60
2019-06-08T07:05:26.614Z,60.35
2019-06-08T07:07:54.519Z,60.00
2019-06-08T07:10:21.353Z,59.20
2019-06-08T07:12:48.656Z,59.04
2019-06-08T07:15:21.259Z,58.83
2019-06-08T07:17:48.047Z,58.10
2019-06-08T07:20:14.891Z,57.24
2019-06-08T07:22:42.036Z,57.73
2019-06-08T07:25:09.107Z,57.15
2019-06-08T07:27:36.022Z,57.74
2019-06-08T07:30:05.080Z,58.49
2019-06-08T07:32:32.112Z,58.17
2019-06-08T07:34:59.436Z,58.72
2019-06-08T07:37:26.427Z,58.59
2019-06-08T07:39:53.639Z,58.07
2019-06-08T07:42:20.696Z,57.50
2019-06-08T07:44:48.818Z,58.20
2019-06-08T07:47:15.711Z,57.65
2019-06-08T07:49:42.427Z,57.22
2019-06-08T07:52:10.908Z,56.61
2019-06-08T07:54:37.923Z,56.48
2019-06-08T07:57:04.926Z,56.37
2019-06-08T07:59:31.873Z,56.42
2019-06-08T08:01:58.678Z,55.91
2019-06-08T08:04:25.385Z,54.53
2019-06-08T08:06:52.505Z,54.93
2019-06-08T08:09:19.460Z,54.15
2019-06-08T08:11:46.542Z,54.08
2019-06-08T08:14:13.302Z,53.76
2019-06-08T08:16:40.295Z,53.86
2019-06-08T08:19:07.157Z,53.58
2019-06-08T08:21:33.919Z,52.38
2019-06-08T08:24:01.680Z,52.15
2019-06-08T08:26:31.267Z,52.09
2019-06-08T08:29:02.500Z,53.92
2019-06-08T08:31:27.831Z,83.11
2019-06-08T08:33:55.849Z,56.96
2019-06-08T08:36:23.828Z,53.47
2019-06-08T08:38:51.851Z,52.93
2019-06-08T08:41:18.687Z,51.56
2019-06-08T08:43:45.415Z,51.69
2019-06-08T08:46:12.130Z,51.77
2019-06-08T08:48:38.881Z,51.86
2019-06-08T08:51:05.593Z,51.51
2019-06-08T08:53:32.349Z,51.58
2019-06-08T08:56:01.283Z,51.23
2019-06-08T08:58:28.086Z,50.28
2019-06-08T09:00:55.362Z,50.53
2019-06-08T09:03:30.931Z,49.35
2019-06-08T09:05:52.438Z,48.42
2019-06-08T09:08:23.030Z,48.60
2019-06-08T09:10:48.525Z,48.94
2019-06-08T09:13:15.312Z,49.66
2019-06-08T09:15:42.233Z,49.81
2019-06-08T09:18:09.001Z,49.86
2019-06-08T09:20:37.934Z,50.55
2019-06-08T09:23:14.706Z,50.83
2019-06-08T09:25:33.157Z,50.87
2019-06-08T09:28:02.876Z,50.53
2019-06-08T09:30:28.772Z,50.21
2019-06-08T09:32:57.183Z,49.73
2019-06-08T09:35:24.266Z,49.73
2019-06-08T09:37:53.173Z,49.41
2019-06-08T09:40:19.877Z,49.11
2019-06-08T09:42:46.631Z,49.32
2019-06-08T09:45:13.809Z,48.85
2019-06-08T09:47:40.715Z,48.58
2019-06-08T09:50:09.485Z,48.24
2019-06-08T09:52:40.979Z,47.81
2019-06-08T09:55:09.136Z,48.73
2019-06-08T09:57:35.511Z,47.82
2019-06-08T10:00:15.338Z,48.38
2019-06-08T10:02:34.606Z,48.40
2019-06-08T10:05:04.059Z,49.14
2019-06-08T10:07:31.337Z,48.13
2019-06-08T10:10:00.399Z,48.01
2019-06-08T10:12:28.227Z,47.93
2019-06-08T10:14:56.636Z,47.50
2019-06-08T10:17:23.822Z,47.15
2019-06-08T10:19:50.540Z,47.15
2019-06-08T10:22:18.176Z,47.37
2019-06-08T10:24:45.364Z,47.50
2019-06-08T10:27:12.360Z,47.34
2019-06-08T10:29:39.648Z,46.78
2019-06-08T10:32:08.991Z,47.37
2019-06-08T10:34:38.402Z,46.57
2019-06-08T10:37:12.533Z,45.93
2019-06-08T10:39:33.900Z,45.49
2019-06-08T10:42:03.164Z,46.36
2019-06-08T10:44:29.470Z,46.90
2019-06-08T10:47:54.124Z,47.51
2019-06-08T10:50:23.350Z,47.41
2019-06-08T10:52:50.387Z,47.29
2019-06-08T10:55:18.141Z,48.14
2019-06-08T10:57:47.613Z,48.08
2019-06-08T11:00:23.975Z,48.32
2019-06-08T11:02:50.934Z,47.79
2019-06-08T11:05:18.304Z,47.96
2019-06-08T11:07:47.875Z,48.19
2019-06-08T11:10:14.413Z,48.67
2019-06-08T11:12:41.132Z,48.49
2019-06-08T11:15:11.402Z,47.40
2019-06-08T11:17:37.879Z,47.18
2019-06-08T11:20:07.390Z,47.64
2019-06-08T11:22:34.518Z,48.41
2019-06-08T11:25:03.754Z,48.40
2019-06-08T11:27:30.976Z,47.95
2019-06-08T11:29:57.711Z,47.37
2019-06-08T11:32:24.541Z,47.92
2019-06-08T11:34:51.645Z,48.04
2019-06-08T11:37:20.948Z,48.84
2019-06-08T11:39:49.193Z,49.49
2019-06-08T11:42:16.032Z,49.50
2019-06-08T11:44:42.883Z,49.70
2019-06-08T11:47:12.566Z,49.79
2019-06-08T11:49:38.525Z,49.29
2019-06-08T11:52:06.737Z,48.97
2019-06-08T11:54:37.257Z,48.98
2019-06-08T11:57:03.046Z,48.78
2019-06-08T11:59:31.167Z,49.71
2019-06-08T12:01:58.632Z,49.80
2019-06-08T12:04:25.621Z,49.94
2019-06-08T12:06:52.519Z,50.24
2019-06-08T12:09:19.262Z,50.33
2019-06-08T12:11:48.050Z,50.63
2019-06-08T12:14:14.832Z,50.66
2019-06-08T12:16:41.713Z,50.79
2019-06-08T12:19:13.199Z,50.79
2019-06-08T12:21:37.237Z,51.31
2019-06-08T12:24:04.313Z,51.46
2019-06-08T12:26:31.332Z,51.51
2019-06-08T12:29:01.212Z,51.95
2019-06-08T12:31:28.114Z,51.90
2019-06-08T12:33:55.051Z,52.26
2019-06-08T12:36:22.008Z,52.08
2019-06-08T12:38:48.831Z,52.60
2019-06-08T12:41:16.009Z,51.75
2019-06-08T12:43:42.927Z,52.10
2019-06-08T12:46:12.599Z,52.00
2019-06-08T12:48:38.679Z,51.74
2019-06-08T12:51:05.606Z,52.52
2019-06-08T12:53:32.460Z,52.57
2019-06-08T12:55:59.382Z,53.18
2019-06-08T12:58:27.607Z,53.07
2019-06-08T13:00:54.575Z,53.17
2019-06-08T13:03:21.363Z,52.62
2019-06-08T13:05:48.074Z,52.58
2019-06-08T13:08:15.310Z,53.11
2019-06-08T13:10:43.212Z,52.61
2019-06-08T13:13:11.139Z,52.43
2019-06-08T13:15:39.268Z,52.41
2019-06-08T13:18:08.510Z,52.63
2019-06-08T13:20:34.736Z,52.58
2019-06-08T13:23:01.621Z,52.50
2019-06-08T13:25:37.560Z,52.94
2019-06-08T13:27:58.388Z,52.82
2019-06-08T13:30:26.359Z,53.28
2019-06-08T13:32:54.231Z,53.30
2019-06-08T13:35:22.452Z,53.62
2019-06-08T13:37:49.402Z,54.06
2019-06-08T13:40:20.137Z,53.96
2019-06-08T13:42:48.350Z,54.41
2019-06-08T13:45:16.205Z,54.57
2019-06-08T13:47:43.600Z,55.87
2019-06-08T13:50:12.915Z,56.35
2019-06-08T13:52:39.702Z,56.29
2019-06-08T13:55:07.456Z,56.63
2019-06-08T13:57:34.287Z,57.08
2019-06-08T14:00:05.081Z,56.89
2019-06-08T14:02:32.097Z,57.48
2019-06-08T14:04:59.245Z,57.56
2019-06-08T14:07:31.789Z,58.21
2019-06-08T14:09:58.247Z,58.08
2019-06-08T14:12:28.265Z,58.80
2019-06-08T14:14:54.247Z,58.85
2019-06-08T14:17:23.818Z,58.59
2019-06-08T14:19:51.673Z,59.27
2019-06-08T14:22:21.349Z,59.96
2019-06-08T14:24:47.823Z,58.62
2019-06-08T14:27:14.992Z,59.85
2019-06-08T14:29:41.895Z,60.70
2019-06-08T14:32:08.883Z,62.87
2019-06-08T14:34:38.492Z,61.91
2019-06-08T14:37:04.791Z,62.26
2019-06-08T14:39:31.977Z,61.93
2019-06-08T14:41:59.108Z,63.47
2019-06-08T14:44:31.297Z,63.96
2019-06-08T14:46:54.600Z,64.03
2019-06-08T14:49:26.433Z,64.67
2019-06-08T14:51:50.935Z,65.20
2019-06-08T14:54:23.403Z,64.66
2019-06-08T14:56:48.542Z,64.98
2019-06-08T14:59:15.427Z,67.27
2019-06-08T15:01:42.350Z,63.68
2019-06-08T15:04:09.297Z,64.41
2019-06-08T15:06:38.194Z,65.76
2019-06-08T15:09:05.681Z,64.46
2019-06-08T15:11:35.147Z,64.90
2019-06-08T15:14:01.465Z,64.24
2019-06-08T15:16:30.612Z,62.78
2019-06-08T15:19:00.141Z,61.60
2019-06-08T15:21:29.515Z,61.79
2019-06-08T15:23:54.480Z,59.89
2019-06-08T15:26:29.873Z,60.67
2019-06-08T15:28:49.990Z,60.38
2019-06-08T15:31:18.315Z,59.69
2019-06-08T15:41:41.947Z,57.97
2019-06-08T15:44:08.816Z,59.11
2019-06-08T15:46:37.964Z,59.27
2019-06-08T15:49:04.569Z,59.16
2019-06-08T15:51:35.478Z,59.26
2019-06-08T15:54:01.448Z,59.35
2019-06-08T15:56:43.201Z,59.27
2019-06-08T15:58:58.811Z,59.19
2019-06-08T16:01:27.191Z,59.04
2019-06-08T16:03:54.144Z,59.28
2019-06-08T16:06:20.901Z,58.78
2019-06-08T16:08:48.060Z,59.02
2019-06-08T16:11:14.827Z,58.76
2019-06-08T16:13:41.864Z,59.01
2019-06-08T16:16:10.643Z,58.98
2019-06-08T16:18:37.430Z,59.33
2019-06-08T16:21:04.450Z,59.04
2019-06-08T16:23:33.671Z,59.05
2019-06-08T16:26:00.658Z,59.32
2019-06-08T16:28:27.744Z,59.35
2019-06-08T16:30:55.063Z,59.09
2019-06-08T16:33:21.883Z,58.94
2019-06-08T16:35:48.742Z,59.15
2019-06-08T16:38:15.460Z,59.32
2019-06-08T16:40:42.571Z,59.42
2019-06-08T16:43:09.389Z,59.65
2019-06-08T16:45:36.330Z,59.24
2019-06-08T16:48:03.452Z,59.33
2019-06-08T16:50:30.371Z,59.16
2019-06-08T16:52:57.352Z,59.22
2019-06-08T16:55:24.090Z,59.32
2019-06-08T16:57:50.938Z,59.27
2019-06-08T17:00:30.745Z,59.00
2019-06-08T17:02:47.119Z,58.90
2019-06-08T17:05:14.148Z,58.90
2019-06-08T17:07:40.862Z,59.02
2019-06-08T17:10:08.284Z,58.67
2019-06-08T17:12:35.367Z,58.94
2019-06-08T17:15:04.141Z,58.83
2019-06-08T17:17:32.082Z,59.19
2019-06-08T17:19:58.875Z,58.85
2019-06-08T17:22:25.613Z,58.79
2019-06-08T17:24:52.428Z,58.73
2019-06-08T17:27:26.706Z,58.97
2019-06-08T17:29:47.897Z,58.68
2019-06-08T17:32:14.866Z,58.83
2019-06-08T17:34:42.466Z,58.83
2019-06-08T17:37:09.593Z,58.63
2019-06-08T17:39:36.400Z,58.59
2019-06-08T17:42:03.842Z,58.42
2019-06-08T17:44:30.566Z,58.46
2019-06-08T17:46:57.382Z,58.69
2019-06-08T17:49:24.099Z,58.54
2019-06-08T17:51:50.977Z,58.76
2019-06-08T17:54:17.731Z,58.86
2019-06-08T17:56:44.491Z,58.68
2019-06-08T17:59:11.207Z,58.57
2019-06-08T18:01:37.956Z,58.59
2019-06-08T18:04:04.814Z,58.48
2019-06-08T18:06:31.986Z,58.86
2019-06-08T18:08:59.074Z,59.14
2019-06-08T18:11:27.643Z,59.09
2019-06-08T18:13:54.713Z,59.37
2019-06-08T18:16:21.975Z,59.50
2019-06-08T18:18:48.892Z,59.79
2019-06-08T18:21:17.825Z,59.79
2019-06-08T18:23:45.316Z,59.42
2019-06-08T18:26:12.184Z,59.87
2019-06-08T18:28:40.909Z,60.06
2019-06-08T18:31:07.814Z,60.12
2019-06-08T18:33:34.739Z,60.61
2019-06-08T18:36:01.981Z,60.31
2019-06-08T18:38:28.901Z,60.21
2019-06-08T18:40:57.495Z,60.32
2019-06-08T18:43:24.400Z,60.37
2019-06-08T18:45:51.378Z,60.25
2019-06-08T18:48:18.545Z,60.39
2019-06-08T18:50:48.426Z,60.61
2019-06-08T18:53:15.016Z,60.44
2019-06-08T18:55:43.948Z,60.69
2019-06-08T18:58:21.053Z,60.89
2019-06-08T19:00:42.016Z,61.06
2019-06-08T19:03:08.373Z,61.24
2019-06-08T19:05:40.209Z,61.09
2019-06-08T19:08:07.472Z,61.23
2019-06-08T19:10:37.809Z,61.44
2019-06-08T19:13:05.219Z,61.10
2019-06-08T19:18:52.840Z,61.43
2019-06-08T19:21:19.248Z,61.60
2019-06-08T19:23:49.250Z,61.72
2019-06-08T19:26:17.083Z,61.65
2019-06-08T19:28:47.640Z,61.54
2019-06-08T19:31:12.386Z,61.56
2019-06-08T19:33:40.115Z,61.42
2019-06-08T19:36:07.751Z,61.34
2019-06-08T19:38:34.831Z,61.31
2019-06-08T19:41:01.556Z,61.71
2019-06-08T19:43:28.296Z,61.58
2019-06-08T19:45:57.820Z,61.65
2019-06-08T19:48:23.863Z,61.70
2019-06-08T19:50:54.268Z,61.78
2019-06-08T19:53:19.799Z,61.71
2019-06-08T19:55:52.039Z,61.68
2019-06-08T19:58:17.916Z,61.65
2019-06-08T20:00:44.285Z,61.91
2019-06-08T20:03:11.282Z,61.97
2019-06-08T20:05:38.210Z,61.64
2019-06-08T20:08:07.883Z,61.89
2019-06-08T20:10:34.378Z,62.16
2019-06-08T20:13:01.125Z,62.08
2019-06-08T20:15:28.068Z,61.96
2019-06-08T20:17:57.274Z,62.07
2019-06-08T20:20:23.565Z,62.02
2019-06-08T20:22:52.019Z,61.88
2019-06-08T20:25:19.039Z,62.07
2019-06-08T20:27:48.424Z,62.20
2019-06-08T20:30:17.266Z,62.14
2019-06-08T20:32:44.450Z,62.43
2019-06-08T20:35:11.395Z,62.48
2019-06-08T20:37:38.250Z,62.40
2019-06-08T20:40:11.151Z,62.41
2019-06-08T20:42:34.665Z,62.73
2019-06-08T20:45:03.094Z,62.82
2019-06-08T20:47:29.902Z,62.79
2019-06-08T20:49:58.250Z,62.65
2019-06-08T20:52:25.523Z,62.49
2019-06-08T20:54:53.491Z,62.40
2019-06-08T20:57:20.791Z,63.39
2019-06-08T20:59:50.192Z,64.29
2019-06-08T21:02:17.857Z,64.27
2019-06-08T21:04:46.750Z,64.64
2019-06-08T21:07:13.502Z,64.41
2019-06-08T21:09:40.467Z,64.55
2019-06-08T21:12:07.190Z,64.63
2019-06-08T21:14:34.123Z,64.97
2019-06-08T21:17:00.844Z,64.73
2019-06-08T21:19:28.187Z,64.68
2019-06-08T21:21:58.468Z,64.61
2019-06-08T21:24:24.724Z,64.68
2019-06-08T21:26:55.197Z,64.50
2019-06-08T21:29:20.330Z,64.30
2019-06-08T21:31:49.291Z,64.54
2019-06-08T21:34:18.125Z,64.56
2019-06-08T21:36:44.605Z,64.25
2019-06-08T21:39:11.368Z,64.30
2019-06-08T21:41:38.285Z,64.27
2019-06-08T21:44:05.188Z,63.85
2019-06-08T21:46:31.893Z,64.32
2019-06-08T21:49:00.484Z,64.86
2019-06-08T21:51:27.588Z,64.63
2019-06-08T21:53:54.420Z,64.34
2019-06-08T21:56:21.550Z,64.28
2019-06-08T21:58:49.752Z,64.34
2019-06-08T22:01:17.843Z,64.38
2019-06-08T22:03:47.056Z,64.72
2019-06-08T22:06:13.535Z,65.06
2019-06-08T22:08:40.268Z,65.37
2019-06-08T22:11:08.661Z,66.54
2019-06-08T22:13:37.460Z,67.59
2019-06-08T22:16:07.749Z,68.07
2019-06-08T22:18:33.658Z,70.27
2019-06-08T22:21:01.174Z,68.63
2019-06-08T22:23:28.223Z,69.26
2019-06-08T22:25:56.022Z,68.55
2019-06-08T22:28:23.738Z,68.74
2019-06-08T22:30:52.112Z,68.50
2019-06-08T22:33:19.272Z,68.82
2019-06-08T22:35:47.771Z,68.86
2019-06-08T22:38:17.592Z,68.90
2019-06-08T22:40:43.702Z,68.98
2019-06-08T22:43:10.734Z,68.95
2019-06-08T22:45:37.677Z,69.19
2019-06-08T22:48:04.618Z,68.91
2019-06-08T22:50:31.369Z,69.34
2019-06-08T22:52:59.460Z,70.14
2019-06-08T22:55:27.743Z,70.03
2019-06-08T22:57:55.430Z,69.82
2019-06-08T23:00:24.815Z,70.01
2019-06-08T23:02:51.142Z,70.60
2019-06-08T23:05:18.616Z,70.86
2019-06-08T23:07:45.624Z,70.97
2019-06-08T23:10:13.287Z,70.35
2019-06-08T23:12:40.120Z,70.61
2019-06-08T23:15:07.898Z,71.23
2019-06-08T23:17:34.771Z,71.05
2019-06-08T23:20:02.072Z,71.29
2019-06-08T23:25:17.838Z,71.29
2019-06-08T23:27:44.187Z,73.41
2019-06-08T23:30:11.535Z,70.60
2019-06-08T23:32:38.818Z,71.01
2019-06-08T23:35:07.931Z,71.73
2019-06-08T23:37:37.278Z,71.97
2019-06-08T23:40:05.491Z,72.18
2019-06-08T23:42:32.660Z,72.32
2019-06-08T23:45:00.618Z,73.09
2019-06-08T23:47:27.939Z,73.10
2019-06-08T23:49:54.802Z,72.38
2019-06-08T23:52:21.545Z,72.85
2019-06-08T23:54:48.373Z,72.98
2019-06-08T23:57:15.199Z,73.36
2019-06-08T23:59:42.003Z,72.02
